sensor_id;sensor_type;location;lat;lon;timestamp;P1;P2;P0
74432;PMS7003;62865;53.146;23.172;2022-12-07T00:04:36;10;7;5
74432;PMS7003;62865;53.146;23.172;2022-12-07T00:09:48;10.5;9;5.5
74432;PMS7003;62865;53.146;23.172;2022-12-07T00:14:34;6.7;6.3;3.3
74432;PMS7003;62865;53.146;23.172;2022-12-07T00:19:48;8.7;5.3;4
74432;PMS7003;62865;53.146;23.172;2022-12-07T00:24:18;15;7;6
74432;PMS7003;62865;53.146;23.172;2022-12-07T00:30:00;8.7;7.3;4
74432;PMS7003;62865;53.146;23.172;2022-12-07T00:35:00;12;6;5
74432;PMS7003;62865;53.146;23.172;2022-12-07T00:39:46;12;6;5
74432;PMS7003;62865;53.146;23.172;2022-12-07T00:44:58;7.4;6;4.6
74432;PMS7003;62865;53.146;23.172;2022-12-07T00:49:24;7.5;6.3;4.5
74432;PMS7003;62865;53.146;23.172;2022-12-07T00:54:58;7;6;3
74432;PMS7003;62865;53.146;23.172;2022-12-07T00:59:34;6.5;6;4
74432;PMS7003;62865;53.146;23.172;2022-12-07T01:04:58;7.5;5.8;4
74432;PMS7003;62865;53.146;23.172;2022-12-07T01:09:34;9.3;6.3;4.3
74432;PMS7003;62865;53.146;23.172;2022-12-07T01:14:28;7.7;5.7;4.3
74432;PMS7003;62865;53.146;23.172;2022-12-07T01:19:28;7;7;5
74432;PMS7003;62865;53.146;23.172;2022-12-07T01:24:50;8;4.5;2.5
74432;PMS7003;62865;53.146;23.172;2022-12-07T01:29:36;7.7;5.3;3.7
74432;PMS7003;62865;53.146;23.172;2022-12-07T01:34:50;5;5;3.3
74432;PMS7003;62865;53.146;23.172;2022-12-07T01:39:18;7;7;5
74432;PMS7003;62865;53.146;23.172;2022-12-07T01:46:10;7.5;6.5;4
74432;PMS7003;62865;53.146;23.172;2022-12-07T01:49:42;7.5;6.5;4
74432;PMS7003;62865;53.146;23.172;2022-12-07T01:54:51;6;6;3
74432;PMS7003;62865;53.146;23.172;2022-12-07T01:59:54;6;6;3
74432;PMS7003;62865;53.146;23.172;2022-12-07T02:04:30;8;5;4
74432;PMS7003;62865;53.146;23.172;2022-12-07T02:10:11;7.8;6.8;4
74432;PMS7003;62865;53.146;23.172;2022-12-07T02:14:28;7.3;5;4
74432;PMS7003;62865;53.146;23.172;2022-12-07T02:20:07;7.4;6.4;3.8
74432;PMS7003;62865;53.146;23.172;2022-12-07T02:24:48;6.5;5.5;3.5
74432;PMS7003;62865;53.146;23.172;2022-12-07T02:29:20;6;5.4;3.6
74432;PMS7003;62865;53.146;23.172;2022-12-07T02:34:40;6;4.8;3.3
74432;PMS7003;62865;53.146;23.172;2022-12-07T02:39:51;14;10;6
74432;PMS7003;62865;53.146;23.172;2022-12-07T02:44:19;11;8.5;5.8
74432;PMS7003;62865;53.146;23.172;2022-12-07T02:49:50;11;8;6
74432;PMS7003;62865;53.146;23.172;2022-12-07T02:54:19;8;7;6
74432;PMS7003;62865;53.146;23.172;2022-12-07T03:00:05;9;7.7;4
74432;PMS7003;62865;53.146;23.172;2022-12-07T03:05:08;9;8.7;4.3
74432;PMS7003;62865;53.146;23.172;2022-12-07T03:09:53;7.3;7;3.3
74432;PMS7003;62865;53.146;23.172;2022-12-07T03:14:52;9.5;8.5;6
74432;PMS7003;62865;53.146;23.172;2022-12-07T03:19:19;8;7;3.7
74432;PMS7003;62865;53.146;23.172;2022-12-07T03:25:03;8;8;5
74432;PMS7003;62865;53.146;23.172;2022-12-07T03:29:43;10.3;7.7;5.7
74432;PMS7003;62865;53.146;23.172;2022-12-07T03:35:03;8;8;7
74432;PMS7003;62865;53.146;23.172;2022-12-07T03:39:39;12;8.7;5.3
74432;PMS7003;62865;53.146;23.172;2022-12-07T03:44:28;12;8.7;5.3
74432;PMS7003;62865;53.146;23.172;2022-12-07T03:49:30;13.7;9.7;6.3
74432;PMS7003;62865;53.146;23.172;2022-12-07T03:54:52;10.7;8.3;5.3
74432;PMS7003;62865;53.146;23.172;2022-12-07T04:00:05;9.3;8.8;5.3
74432;PMS7003;62865;53.146;23.172;2022-12-07T04:05:04;10.7;7.7;5.3
74432;PMS7003;62865;53.146;23.172;2022-12-07T04:09:28;13.5;9.5;6
74432;PMS7003;62865;53.146;23.172;2022-12-07T04:14:48;15;12;7
74432;PMS7003;62865;53.146;23.172;2022-12-07T04:19:52;10;9;6
74432;PMS7003;62865;53.146;23.172;2022-12-07T04:24:50;14.5;11;7
74432;PMS7003;62865;53.146;23.172;2022-12-07T04:29:16;8;7.3;5.3
74432;PMS7003;62865;53.146;23.172;2022-12-07T04:34:26;14;12;8
74432;PMS7003;62865;53.146;23.172;2022-12-07T04:39:34;12;12;6
74432;PMS7003;62865;53.146;23.172;2022-12-07T04:44:48;12.8;10.5;7
74432;PMS7003;62865;53.146;23.172;2022-12-07T04:49:36;11;9;5.5
74432;PMS7003;62865;53.146;23.172;2022-12-07T04:55:02;13;11;6.5
74432;PMS7003;62865;53.146;23.172;2022-12-07T04:59:16;12;11;6
74432;PMS7003;62865;53.146;23.172;2022-12-07T05:04:54;14.5;9.5;5.5
74432;PMS7003;62865;53.146;23.172;2022-12-07T05:09:38;14.5;9.5;5.5
74432;PMS7003;62865;53.146;23.172;2022-12-07T05:15:00;14;10;7
74432;PMS7003;62865;53.146;23.172;2022-12-07T05:20:00;12.8;9;6.2
74432;PMS7003;62865;53.146;23.172;2022-12-07T05:24:16;13.6;10.2;5.8
74432;PMS7003;62865;53.146;23.172;2022-12-07T05:29:49;13.2;10;6.2
74432;PMS7003;62865;53.146;23.172;2022-12-07T05:34:50;15.8;12.6;7.2
74432;PMS7003;62865;53.146;23.172;2022-12-07T05:39:46;13.6;11.4;7.2
74432;PMS7003;62865;53.146;23.172;2022-12-07T05:44:38;15.4;12.4;8
74432;PMS7003;62865;53.146;23.172;2022-12-07T05:49:28;16.5;14.3;9.3
74432;PMS7003;62865;53.146;23.172;2022-12-07T05:54:38;17.3;14.3;8
74432;PMS7003;62865;53.146;23.172;2022-12-07T05:59:46;17;13.7;9.3
74432;PMS7003;62865;53.146;23.172;2022-12-07T06:04:25;18;17;8
74432;PMS7003;62865;53.146;23.172;2022-12-07T06:09:58;19;16.5;10
74432;PMS7003;62865;53.146;23.172;2022-12-07T06:19:54;12;12;8
74432;PMS7003;62865;53.146;23.172;2022-12-07T06:24:26;16.7;13;9
74432;PMS7003;62865;53.146;23.172;2022-12-07T06:30:04;21;14;11
74432;PMS7003;62865;53.146;23.172;2022-12-07T06:35:03;18;17;10
74432;PMS7003;62865;53.146;23.172;2022-12-07T06:39:30;26;22;14
74432;PMS7003;62865;53.146;23.172;2022-12-07T06:44:48;28;22;16
74432;PMS7003;62865;53.146;23.172;2022-12-07T06:49:48;25.5;23.5;13.5
74432;PMS7003;62865;53.146;23.172;2022-12-07T06:54:46;22.2;19.4;12.8
74432;PMS7003;62865;53.146;23.172;2022-12-07T06:59:36;17;15;10
74432;PMS7003;62865;53.146;23.172;2022-12-07T07:04:16;20.4;15;9.6
74432;PMS7003;62865;53.146;23.172;2022-12-07T07:09:26;18;15;10
74432;PMS7003;62865;53.146;23.172;2022-12-07T07:14:46;20.8;15.5;10.3
74432;PMS7003;62865;53.146;23.172;2022-12-07T07:19:34;17.8;15.4;10.6
74432;PMS7003;62865;53.146;23.172;2022-12-07T07:24:58;17.8;15.4;10
74432;PMS7003;62865;53.146;23.172;2022-12-07T07:29:38;33;26.8;15.3
74432;PMS7003;62865;53.146;23.172;2022-12-07T07:34:20;23.5;17.5;11.3
74432;PMS7003;62865;53.146;23.172;2022-12-07T07:39:26;28.3;24;14.3
74432;PMS7003;62865;53.146;23.172;2022-12-07T07:45:00;23.8;21;14.4
74432;PMS7003;62865;53.146;23.172;2022-12-07T07:50:00;20.5;19;13
74432;PMS7003;62865;53.146;23.172;2022-12-07T07:54:26;25.7;22.3;13.3
74432;PMS7003;62865;53.146;23.172;2022-12-07T07:59:48;25;21.6;14.2
74432;PMS7003;62865;53.146;23.172;2022-12-07T08:04:52;26.3;21.5;13.5
74432;PMS7003;62865;53.146;23.172;2022-12-07T08:09:46;28.5;21;13
74432;PMS7003;62865;53.146;23.172;2022-12-07T08:14:34;24;21.3;13.5
74432;PMS7003;62865;53.146;23.172;2022-12-07T08:19:18;32;25;15
74432;PMS7003;62865;53.146;23.172;2022-12-07T08:24:28;29.3;22.8;14.8
74432;PMS7003;62865;53.146;23.172;2022-12-07T08:29:48;29.3;23;14.7
74432;PMS7003;62865;53.146;23.172;2022-12-07T08:35:02;29.7;26.7;14.7
74432;PMS7003;62865;53.146;23.172;2022-12-07T08:40:03;31.3;23.5;14.8
74432;PMS7003;62865;53.146;23.172;2022-12-07T08:44:28;30;27.3;18
74432;PMS7003;62865;53.146;23.172;2022-12-07T08:49:41;33.7;30.3;18.3
74432;PMS7003;62865;53.146;23.172;2022-12-07T08:54:40;34;31.5;17
74432;PMS7003;62865;53.146;23.172;2022-12-07T09:00:03;29.7;26.7;17.3
74432;PMS7003;62865;53.146;23.172;2022-12-07T09:05:00;35;31;18
74432;PMS7003;62865;53.146;23.172;2022-12-07T09:09:16;36.3;30.3;19
74432;PMS7003;62865;53.146;23.172;2022-12-07T09:14:46;29.6;26.4;16.6
74432;PMS7003;62865;53.146;23.172;2022-12-07T09:19:18;29.4;25;15.6
74432;PMS7003;62865;53.146;23.172;2022-12-07T09:24:48;32;28;16.8
74432;PMS7003;62865;53.146;23.172;2022-12-07T09:29:40;30.6;26.4;17.6
74432;PMS7003;62865;53.146;23.172;2022-12-07T09:34:26;31.6;26.2;15.2
74432;PMS7003;62865;53.146;23.172;2022-12-07T09:39:26;33.6;27.2;17
74432;PMS7003;62865;53.146;23.172;2022-12-07T09:45:00;33.2;27;17.2
74432;PMS7003;62865;53.146;23.172;2022-12-07T09:49:46;32;26.8;16.8
74432;PMS7003;62865;53.146;23.172;2022-12-07T09:55:00;33;27.8;17
74432;PMS7003;62865;53.146;23.172;2022-12-07T09:59:28;31.8;27.4;17.8
74432;PMS7003;62865;53.146;23.172;2022-12-07T10:04:52;32.6;27.6;18
74432;PMS7003;62865;53.146;23.172;2022-12-07T10:09:38;30.6;25.4;15.6
74432;PMS7003;62865;53.146;23.172;2022-12-07T10:15:02;29.2;24;15.6
74432;PMS7003;62865;53.146;23.172;2022-12-07T10:20:08;25.4;22.8;14.8
74432;PMS7003;62865;53.146;23.172;2022-12-07T10:24:18;27.4;23.2;14.8
74432;PMS7003;62865;53.146;23.172;2022-12-07T10:29:51;29;24.2;16.2
74432;PMS7003;62865;53.146;23.172;2022-12-07T10:35:15;23.4;20;14
74432;PMS7003;62865;53.146;23.172;2022-12-07T10:39:28;27.6;22.2;14.2
74432;PMS7003;62865;53.146;23.172;2022-12-07T10:44:36;24.6;21.2;13.4
74432;PMS7003;62865;53.146;23.172;2022-12-07T10:49:31;25.4;21.6;14
74432;PMS7003;62865;53.146;23.172;2022-12-07T10:54:40;26.5;21.8;13.3
74432;PMS7003;62865;53.146;23.172;2022-12-07T10:59:52;26.8;23.2;14
74432;PMS7003;62865;53.146;23.172;2022-12-07T11:04:38;24.6;21.8;13
74432;PMS7003;62865;53.146;23.172;2022-12-07T11:10:02;21;18;12.4
74432;PMS7003;62865;53.146;23.172;2022-12-07T11:14:28;21.8;19.8;12
74432;PMS7003;62865;53.146;23.172;2022-12-07T11:19:54;24.2;19;12
74432;PMS7003;62865;53.146;23.172;2022-12-07T11:24:40;22.2;18.2;11.6
74432;PMS7003;62865;53.146;23.172;2022-12-07T11:30:06;18.8;15.8;10.2
74432;PMS7003;62865;53.146;23.172;2022-12-07T11:35:03;21.3;16.5;10.5
74432;PMS7003;62865;53.146;23.172;2022-12-07T11:39:30;17.3;15.7;10.3
74432;PMS7003;62865;53.146;23.172;2022-12-07T11:44:50;17.8;16.5;9.8
74432;PMS7003;62865;53.146;23.172;2022-12-07T11:49:51;16.8;14.4;9.8
74432;PMS7003;62865;53.146;23.172;2022-12-07T11:54:49;18.3;14.3;10
74432;PMS7003;62865;53.146;23.172;2022-12-07T11:59:39;14.3;12.3;8
74432;PMS7003;62865;53.146;23.172;2022-12-07T12:04:20;15;12.8;8.5
74432;PMS7003;62865;53.146;23.172;2022-12-07T12:09:40;19;16;10.5
74432;PMS7003;62865;53.146;23.172;2022-12-07T12:14:52;15;11.7;8
74432;PMS7003;62865;53.146;23.172;2022-12-07T12:19:38;14.6;12.2;7.6
74432;PMS7003;62865;53.146;23.172;2022-12-07T12:24:58;13.6;11.6;8
74432;PMS7003;62865;53.146;23.172;2022-12-07T12:29:39;13.8;11.6;8.2
74432;PMS7003;62865;53.146;23.172;2022-12-07T12:35:00;12.4;9.8;6.6
74432;PMS7003;62865;53.146;23.172;2022-12-07T12:39:28;11.2;10.4;7
74432;PMS7003;62865;53.146;23.172;2022-12-07T12:45:02;12.4;10.4;8.2
74432;PMS7003;62865;53.146;23.172;2022-12-07T12:50:11;14.6;12;8.4
74432;PMS7003;62865;53.146;23.172;2022-12-07T12:54:31;13.8;11;7
74432;PMS7003;62865;53.146;23.172;2022-12-07T12:59:55;13.2;9.6;6.2
74432;PMS7003;62865;53.146;23.172;2022-12-07T13:04:53;12.4;10.2;6.6
74432;PMS7003;62865;53.146;23.172;2022-12-07T13:09:50;9.8;9.3;6.5
74432;PMS7003;62865;53.146;23.172;2022-12-07T13:14:43;10.4;8.4;6
74432;PMS7003;62865;53.146;23.172;2022-12-07T13:24:38;11.8;9.4;6.6
74432;PMS7003;62865;53.146;23.172;2022-12-07T13:30:01;13.6;12;7.6
74432;PMS7003;62865;53.146;23.172;2022-12-07T13:34:37;13.2;11.4;7.4
74432;PMS7003;62865;53.146;23.172;2022-12-07T13:40:01;12.4;10.4;6.8
74432;PMS7003;62865;53.146;23.172;2022-12-07T13:44:19;13.4;11.6;8
74432;PMS7003;62865;53.146;23.172;2022-12-07T13:49:31;14.8;12.4;7.8
74432;PMS7003;62865;53.146;23.172;2022-12-07T13:54:30;13.5;11.5;7.8
74432;PMS7003;62865;53.146;23.172;2022-12-07T13:59:48;16.4;13.8;8.2
74432;PMS7003;62865;53.146;23.172;2022-12-07T14:05:09;18.5;16.8;10
74432;PMS7003;62865;53.146;23.172;2022-12-07T14:09:20;18;14.4;9.8
74432;PMS7003;62865;53.146;23.172;2022-12-07T14:14:20;19.5;15.8;10.5
74432;PMS7003;62865;53.146;23.172;2022-12-07T14:19:40;17.6;14.2;9
74432;PMS7003;62865;53.146;23.172;2022-12-07T14:24:51;13.8;11.8;6.8
74432;PMS7003;62865;53.146;23.172;2022-12-07T14:29:38;21.4;16.8;11.2
74432;PMS7003;62865;53.146;23.172;2022-12-07T14:34:26;17.8;14.4;8.6
74432;PMS7003;62865;53.146;23.172;2022-12-07T14:39:38;16.8;13;8.4
74432;PMS7003;62865;53.146;23.172;2022-12-07T14:45:00;16.4;12.4;7.8
74432;PMS7003;62865;53.146;23.172;2022-12-07T14:49:37;17.6;12.8;9
74432;PMS7003;62865;53.146;23.172;2022-12-07T14:55:01;15.2;14;9.8
74432;PMS7003;62865;53.146;23.172;2022-12-07T14:59:18;21.8;16.6;10
74432;PMS7003;62865;53.146;23.172;2022-12-07T15:04:31;17.8;15.8;9
74432;PMS7003;62865;53.146;23.172;2022-12-07T15:09:38;17;15.4;9.4
74432;PMS7003;62865;53.146;23.172;2022-12-07T15:14:48;20;17.4;10
74432;PMS7003;62865;53.146;23.172;2022-12-07T15:20:03;19.4;15.4;9.8
74432;PMS7003;62865;53.146;23.172;2022-12-07T15:24:19;17.8;15.6;10
74432;PMS7003;62865;53.146;23.172;2022-12-07T15:29:30;20;16.5;10
74432;PMS7003;62865;53.146;23.172;2022-12-07T15:34:52;23.2;16.6;11
74432;PMS7003;62865;53.146;23.172;2022-12-07T15:39:49;20;17.6;9.8
74432;PMS7003;62865;53.146;23.172;2022-12-07T15:44:38;17.8;16;9.8
74432;PMS7003;62865;53.146;23.172;2022-12-07T15:49:38;23.4;18.8;10.6
74432;PMS7003;62865;53.146;23.172;2022-12-07T15:54:32;21.6;18.6;10.8
74432;PMS7003;62865;53.146;23.172;2022-12-07T16:00:03;23.8;18.8;10.6
74432;PMS7003;62865;53.146;23.172;2022-12-07T16:05:03;20;17.4;11
74432;PMS7003;62865;53.146;23.172;2022-12-07T16:10:03;24.4;22;12.4
74432;PMS7003;62865;53.146;23.172;2022-12-07T16:14:19;24.2;18.8;11.2
74432;PMS7003;62865;53.146;23.172;2022-12-07T16:19:27;24.6;20.6;12
74432;PMS7003;62865;53.146;23.172;2022-12-07T16:24:42;25;19;12
74432;PMS7003;62865;53.146;23.172;2022-12-07T16:29:51;25;19.8;12.4
74432;PMS7003;62865;53.146;23.172;2022-12-07T16:35:03;23.4;19;11.6
74432;PMS7003;62865;53.146;23.172;2022-12-07T16:39:39;21.6;18.4;11.6
74432;PMS7003;62865;53.146;23.172;2022-12-07T16:44:19;20;16.6;10
74432;PMS7003;62865;53.146;23.172;2022-12-07T16:49:53;21.6;17.2;10.6
74432;PMS7003;62865;53.146;23.172;2022-12-07T16:54:51;24.2;19.4;11.4
74432;PMS7003;62865;53.146;23.172;2022-12-07T16:59:41;22.3;17;11
74432;PMS7003;62865;53.146;23.172;2022-12-07T17:04:19;26;21.4;13.6
74432;PMS7003;62865;53.146;23.172;2022-12-07T17:09:19;29.2;24.2;15.6
74432;PMS7003;62865;53.146;23.172;2022-12-07T17:14:49;32.6;27;17.2
74432;PMS7003;62865;53.146;23.172;2022-12-07T17:19:41;31;25.6;16.4
74432;PMS7003;62865;53.146;23.172;2022-12-07T17:25:01;26.4;21.8;12.2
74432;PMS7003;62865;53.146;23.172;2022-12-07T17:29:29;24.6;18.8;10.8
74432;PMS7003;62865;53.146;23.172;2022-12-07T17:34:19;22.8;19.2;12
74432;PMS7003;62865;53.146;23.172;2022-12-07T17:39:41;23.4;19.6;11
74432;PMS7003;62865;53.146;23.172;2022-12-07T17:44:49;22.6;18.6;11.2
74432;PMS7003;62865;53.146;23.172;2022-12-07T17:49:51;21.6;17;11
74432;PMS7003;62865;53.146;23.172;2022-12-07T17:55:03;22.6;19;12.8
74432;PMS7003;62865;53.146;23.172;2022-12-07T17:59:17;26.6;20.8;12.6
74432;PMS7003;62865;53.146;23.172;2022-12-07T18:05:03;25.6;20.2;12
74432;PMS7003;62865;53.146;23.172;2022-12-07T18:09:31;22.4;19;11.6
74432;PMS7003;62865;53.146;23.172;2022-12-07T18:14:37;22.8;18.4;11
74432;PMS7003;62865;53.146;23.172;2022-12-07T18:19:51;19.4;16.6;11.4
74432;PMS7003;62865;53.146;23.172;2022-12-07T18:24:31;24.8;21.8;13.4
74432;PMS7003;62865;53.146;23.172;2022-12-07T18:30:01;20.8;15.8;10
74432;PMS7003;62865;53.146;23.172;2022-12-07T18:34:27;23.2;19.4;12
74432;PMS7003;62865;53.146;23.172;2022-12-07T18:40:03;21;17;9.8
74432;PMS7003;62865;53.146;23.172;2022-12-07T18:44:51;19.8;16.6;9.8
74432;PMS7003;62865;53.146;23.172;2022-12-07T18:49:19;21.8;17;10.8
74432;PMS7003;62865;53.146;23.172;2022-12-07T18:54:40;22.4;17.6;10.2
74432;PMS7003;62865;53.146;23.172;2022-12-07T18:59:32;21.6;19.2;11.8
74432;PMS7003;62865;53.146;23.172;2022-12-07T19:04:53;24.8;19;11.2
74432;PMS7003;62865;53.146;23.172;2022-12-07T19:10:03;23;18.4;12.4
74432;PMS7003;62865;53.146;23.172;2022-12-07T19:19:30;22.7;21;12
74432;PMS7003;62865;53.146;23.172;2022-12-07T19:24:39;25.6;19.8;12.4
74432;PMS7003;62865;53.146;23.172;2022-12-07T19:29:41;25;20.4;12
74432;PMS7003;62865;53.146;23.172;2022-12-07T19:34:53;23.8;22;14.4
74432;PMS7003;62865;53.146;23.172;2022-12-07T19:39:19;28;23.4;14.2
74432;PMS7003;62865;53.146;23.172;2022-12-07T19:45:01;29;23;12.8
74432;PMS7003;62865;53.146;23.172;2022-12-07T19:49:37;32.2;25.6;15.8
74432;PMS7003;62865;53.146;23.172;2022-12-07T19:55:01;27.2;23.4;13.8
74432;PMS7003;62865;53.146;23.172;2022-12-07T19:59:39;28.4;21.6;14.2
74432;PMS7003;62865;53.146;23.172;2022-12-07T20:04:29;26.4;21.6;13.4
74432;PMS7003;62865;53.146;23.172;2022-12-07T20:09:41;25.4;21.2;13.8
74432;PMS7003;62865;53.146;23.172;2022-12-07T20:14:49;24.4;22;14
74432;PMS7003;62865;53.146;23.172;2022-12-07T20:19:51;25.8;21.8;12.4
74432;PMS7003;62865;53.146;23.172;2022-12-07T20:24:49;25.8;21.6;13
74432;PMS7003;62865;53.146;23.172;2022-12-07T20:29:19;27.4;22;13
74432;PMS7003;62865;53.146;23.172;2022-12-07T20:35:01;24;19;11.2
74432;PMS7003;62865;53.146;23.172;2022-12-07T20:39:49;27;21;13.4
74432;PMS7003;62865;53.146;23.172;2022-12-07T20:44:39;23.6;21;12.8
74432;PMS7003;62865;53.146;23.172;2022-12-07T20:49:51;24.8;19.2;12
74432;PMS7003;62865;53.146;23.172;2022-12-07T20:54:19;23;15.8;10.6
74432;PMS7003;62865;53.146;23.172;2022-12-07T21:00:01;26;21;13.2
74432;PMS7003;62865;53.146;23.172;2022-12-07T21:04:37;22;19.8;11.5
74432;PMS7003;62865;53.146;23.172;2022-12-07T21:10:03;22;19;11.2
74432;PMS7003;62865;53.146;23.172;2022-12-07T21:14:41;23;19;11.4
74432;PMS7003;62865;53.146;23.172;2022-12-07T21:19:19;25.6;20.6;13
74432;PMS7003;62865;53.146;23.172;2022-12-07T21:24:53;24;20.2;12.2
74432;PMS7003;62865;53.146;23.172;2022-12-07T21:29:51;24;20.6;11.2
74432;PMS7003;62865;53.146;23.172;2022-12-07T21:34:51;27.6;24;14.4
74432;PMS7003;62865;53.146;23.172;2022-12-07T21:40:03;25.2;20.6;12.8
74432;PMS7003;62865;53.146;23.172;2022-12-07T21:44:25;23.2;19.4;11.8
74432;PMS7003;62865;53.146;23.172;2022-12-07T21:49:59;26;22.4;13.8
74432;PMS7003;62865;53.146;23.172;2022-12-07T21:54:21;23.8;19.2;12
74432;PMS7003;62865;53.146;23.172;2022-12-07T21:59:47;26.8;20.6;11.8
74432;PMS7003;62865;53.146;23.172;2022-12-07T22:04:49;24.4;22.2;12.6
74432;PMS7003;62865;53.146;23.172;2022-12-07T22:09:35;24.6;19.8;12
74432;PMS7003;62865;53.146;23.172;2022-12-07T22:14:55;24.6;20.8;12.2
74432;PMS7003;62865;53.146;23.172;2022-12-07T22:19:33;27;21.2;12.4
74432;PMS7003;62865;53.146;23.172;2022-12-07T22:24:47;23.2;19.8;11.2
74432;PMS7003;62865;53.146;23.172;2022-12-07T22:29:35;24.3;19.3;12
74432;PMS7003;62865;53.146;23.172;2022-12-07T22:34:33;26.4;21.8;12.2
74432;PMS7003;62865;53.146;23.172;2022-12-07T22:39:37;24;20;12.8
74432;PMS7003;62865;53.146;23.172;2022-12-07T22:44:45;20.6;18.4;12
74432;PMS7003;62865;53.146;23.172;2022-12-07T22:49:27;23.4;19.4;12.8
74432;PMS7003;62865;53.146;23.172;2022-12-07T22:54:47;25.4;22.4;12.8
74432;PMS7003;62865;53.146;23.172;2022-12-07T22:59:19;26.2;21.6;12.8
74432;PMS7003;62865;53.146;23.172;2022-12-07T23:04:57;26.4;21.2;12.4
74432;PMS7003;62865;53.146;23.172;2022-12-07T23:09:57;23.6;19.4;11.6
74432;PMS7003;62865;53.146;23.172;2022-12-07T23:14:45;23.6;20;13
74432;PMS7003;62865;53.146;23.172;2022-12-07T23:19:47;18;15.2;8.4
74432;PMS7003;62865;53.146;23.172;2022-12-07T23:24:19;19.4;14.8;8.8
74432;PMS7003;62865;53.146;23.172;2022-12-07T23:29:57;16.2;14.4;9
74432;PMS7003;62865;53.146;23.172;2022-12-07T23:34:35;17;13.6;9
74432;PMS7003;62865;53.146;23.172;2022-12-07T23:39:59;15.6;13.4;8.4
74432;PMS7003;62865;53.146;23.172;2022-12-07T23:44:35;18.2;15.6;9.4
74432;PMS7003;62865;53.146;23.172;2022-12-07T23:49:19;20.4;15.6;9.4
74432;PMS7003;62865;53.146;23.172;2022-12-07T23:54:35;20.8;18.6;10.4
74432;PMS7003;62865;53.146;23.172;2022-12-07T23:59:45;17.4;15.6;10.6
